Für Piloten

Informationen für Piloten zum Flugplatz Borken-Hoxfeld
Hier findest Du alle relevanten Informationen, die Du als Pilot benötigst, um Borken-Hoxfeld anzufliegen.

Flugplatz: Borken-Hoxfeld ICAO-Code: EDLY
Borken-Hoxfeld Info: 122,925 Mhz
GAFOR Gebiet: 32
Platzrunde: Motorflug; -> Südplatzrunde; Segelflug; -> Nordplatzrunde;
Landegebühr: z.Zt. 5,00 Euro
Platzhöhe: 48m üMSL
Pisten: 12/30 – 740 m x 30 m, GRAS
Betriebszeiten: PPR (in den Sommermonaten Mittagspause beachten)

 

Wetterforecast:

Available data for EDDL from the past 2 hours
DUESSELDORF
Metar
EDDL 191250Z 24012KT 9999 SCT018 BKN047 05/01 Q1009 NOSIG

12:50 UTC

Wind: 240° 12kt

Visibility: 9999 m

Sky: SCT 1800 ft

Temp: 5 deg C / 41 deg F

Dewpoint: 1 deg C / 33.8 deg F

Pressure: 1009 hPa

TAF
TAF EDDL 191100Z 1912/2018 22010KT 9999 SCT020 PROB30 TEMPO 1918/2003 2500 SHSNRA BKN020CB BECMG 2006/2009 16010KT BECMG 2015/2018 10005KT TEMPO 2015/2018 4500 RA BKN012 PROB30 TEMPO 2015/2018 BKN008

Alle obigen Informationen ersetzen nicht die vorgeschriebene, persönliche Flugvorbereitung.